Time;durP1;ratioP1;P1;durP2;ratioP2;P2;SDS_P1;SDS_P2;PMS_P1;PMS_P2;Temp;Humidity;BMP_temperature;BMP_pressure;BME280_temperature;BME280_humidity;BME280_pressure;Samples;Min_cycle;Max_cycle;Signal;HPM_P1;HPM_P2
2021/04/23 00:01:25;;;;;;;13.10;4.60;;;;;;;3.28;59.53;96951.50;5061720;28;20435;-76
2021/04/23 00:04:03;;;;;;;11.27;4.80;;;;;;;3.31;59.22;96946.13;5061566;28;20754;-77
2021/04/23 00:06:36;;;;;;;11.23;5.47;;;;;;;3.23;58.90;96951.81;5076435;28;20034;-76
2021/04/23 00:09:08;;;;;;;11.98;5.45;;;;;;;3.06;60.14;96952.88;5050485;28;21311;-77
2021/04/23 00:11:38;;;;;;;12.93;5.63;;;;;;;2.95;60.46;96950.13;5057601;28;20040;-75
2021/04/23 00:14:04;;;;;;;13.33;4.83;;;;;;;2.92;61.03;96955.50;5063303;28;20442;-76
2021/04/23 00:16:30;;;;;;;17.83;5.07;;;;;;;2.79;61.87;96950.22;5073045;28;20466;-76
2021/04/23 00:18:56;;;;;;;9.20;4.17;;;;;;;2.84;61.15;96955.13;5072635;28;21076;-77
2021/04/23 00:21:22;;;;;;;10.33;4.70;;;;;;;2.58;61.85;96952.34;5078042;28;20039;-76
2021/04/23 00:23:50;;;;;;;12.97;4.97;;;;;;;2.56;62.21;96953.38;5061195;28;20032;-76
2021/04/23 00:26:16;;;;;;;10.33;3.80;;;;;;;2.52;62.05;96947.53;5073194;28;20480;-76
2021/04/23 00:28:42;;;;;;;11.37;5.53;;;;;;;2.56;61.82;96946.41;5074235;28;20489;-76
2021/04/23 00:31:09;;;;;;;10.60;4.47;;;;;;;2.53;61.37;96945.75;5042432;28;20458;-77
2021/04/23 00:33:36;;;;;;;10.97;4.50;;;;;;;2.64;61.63;96947.69;5057521;28;20598;-76
2021/04/23 00:36:04;;;;;;;12.13;4.40;;;;;;;2.31;63.23;96954.84;5075229;28;20470;-76
2021/04/23 00:38:30;;;;;;;11.07;4.20;;;;;;;2.17;63.64;96953.97;5066932;28;20856;-76
2021/04/23 00:41:10;;;;;;;9.83;4.07;;;;;;;2.31;63.42;96948.78;5051430;28;20478;-76
2021/04/23 00:43:39;;;;;;;7.10;3.57;;;;;;;2.38;62.90;96949.25;5068386;28;20430;-77
2021/04/23 00:46:06;;;;;;;9.30;3.80;;;;;;;2.41;63.05;96951.66;5061804;28;20471;-75
2021/04/23 00:48:34;;;;;;;8.63;3.67;;;;;;;2.44;63.06;96954.09;5054487;28;20549;-78
2021/04/23 00:51:05;;;;;;;8.27;3.93;;;;;;;2.41;63.26;96944.72;5053372;28;20498;-76
2021/04/23 00:53:35;;;;;;;8.97;4.30;;;;;;;2.40;62.80;96953.44;5066547;28;21263;-77
2021/04/23 00:56:06;;;;;;;7.97;4.20;;;;;;;2.32;63.54;96943.53;5081904;28;20550;-76
2021/04/23 00:58:33;;;;;;;8.70;3.60;;;;;;;2.39;63.18;96946.59;5052099;28;21112;-75
2021/04/23 01:01:03;;;;;;;13.10;5.10;;;;;;;2.40;63.00;96944.81;5070963;28;20458;-76
2021/04/23 01:03:30;;;;;;;10.13;4.30;;;;;;;2.38;62.72;96941.47;5076614;28;20808;-76
2021/04/23 01:05:57;;;;;;;11.17;4.17;;;;;;;2.25;62.68;96944.81;5071366;28;20593;-75
2021/04/23 01:08:25;;;;;;;8.53;4.37;;;;;;;2.32;63.09;96947.88;5061195;28;20893;-77
2021/04/23 01:10:56;;;;;;;12.07;5.07;;;;;;;2.33;62.99;96949.53;5075571;28;20913;-76
2021/04/23 01:13:27;;;;;;;11.10;4.20;;;;;;;2.36;63.76;96944.16;5065272;28;21038;-77
2021/04/23 01:15:53;;;;;;;10.43;4.40;;;;;;;2.33;63.43;96949.53;5070799;28;20550;-76
2021/04/23 01:18:19;;;;;;;15.70;4.97;;;;;;;2.31;63.14;96941.84;5073790;28;20569;-76
2021/04/23 01:20:45;;;;;;;9.13;3.47;;;;;;;2.33;62.62;96942.59;5065076;28;20080;-76
2021/04/23 01:23:10;;;;;;;18.30;6.33;;;;;;;2.22;63.02;96949.34;5057209;28;20023;-77
2021/04/23 01:25:36;;;;;;;10.70;3.90;;;;;;;2.31;62.83;96946.19;5081271;28;20054;-76
2021/04/23 01:28:02;;;;;;;9.47;3.83;;;;;;;2.26;63.05;96946.47;5077962;28;20041;-76
2021/04/23 01:30:28;;;;;;;14.87;4.90;;;;;;;2.10;63.63;96956.06;5077083;28;20137;-77
2021/04/23 01:32:53;;;;;;;11.23;4.70;;;;;;;1.83;64.05;96954.16;5072120;28;20035;-75
2021/04/23 01:35:23;;;;;;;9.60;3.87;;;;;;;1.72;65.27;96955.69;5052247;28;20098;-76
2021/04/23 01:37:49;;;;;;;12.30;4.63;;;;;;;1.68;65.43;96956.78;5060261;28;20023;-77
2021/04/23 01:40:16;;;;;;;11.10;4.80;;;;;;;1.48;65.87;96963.09;5080852;28;20473;-77
2021/04/23 01:42:42;;;;;;;13.20;4.17;;;;;;;1.63;65.81;96959.63;5073009;28;20464;-76
2021/04/23 01:45:10;;;;;;;10.60;5.03;;;;;;;1.58;66.19;96953.88;5078777;28;20451;-76
2021/04/23 01:47:36;;;;;;;12.23;4.70;;;;;;;1.64;65.28;96948.34;5052641;28;20025;-75
2021/04/23 01:50:07;;;;;;;8.73;4.17;;;;;;;1.58;65.73;96949.53;5055595;28;20482;-75
2021/04/23 01:52:33;;;;;;;12.53;5.20;;;;;;;1.54;65.91;96949.78;5078376;28;21211;-76
2021/04/23 01:54:58;;;;;;;13.23;5.37;;;;;;;1.51;67.06;96958.59;5055389;28;20454;-76
2021/04/23 01:57:24;;;;;;;9.93;3.90;;;;;;;1.53;66.29;96961.06;5074346;28;20059;-76
2021/04/23 01:59:50;;;;;;;11.87;4.17;;;;;;;1.57;66.86;96966.00;5051299;28;20032;-76
2021/04/23 02:02:17;;;;;;;11.17;4.43;;;;;;;1.61;66.23;96962.31;5064223;28;20032;-76
2021/04/23 02:04:46;;;;;;;13.47;4.53;;;;;;;1.61;65.78;96961.47;5070565;28;20162;-77
2021/04/23 02:07:15;;;;;;;12.47;5.07;;;;;;;1.63;66.33;96960.47;5073882;28;20477;-76
2021/04/23 02:09:40;;;;;;;13.87;4.43;;;;;;;1.68;65.61;96967.16;5052085;28;20443;-75
2021/04/23 02:12:07;;;;;;;12.77;4.30;;;;;;;1.57;66.58;96959.97;5067628;28;20492;-76
2021/04/23 02:14:33;;;;;;;11.73;4.73;;;;;;;1.49;66.36;96965.59;5040122;28;20024;-76
2021/04/23 02:16:59;;;;;;;11.87;4.80;;;;;;;1.34;67.39;96969.88;5050160;28;20477;-75
2021/04/23 02:19:25;;;;;;;8.43;4.37;;;;;;;1.35;67.73;96971.56;5063210;28;20028;-76
2021/04/23 02:21:52;;;;;;;11.40;5.07;;;;;;;1.40;67.91;96971.28;5062888;28;20119;-75
2021/04/23 02:24:18;;;;;;;13.33;4.40;;;;;;;1.40;67.21;96976.47;5082184;28;21159;-76
2021/04/23 02:26:44;;;;;;;11.13;4.03;;;;;;;1.38;67.11;96975.72;5061575;28;20528;-76
2021/04/23 02:29:15;;;;;;;11.70;4.23;;;;;;;1.24;68.10;96970.44;5059092;28;20475;-75
2021/04/23 02:32:06;;;;;;;10.50;5.27;;;;;;;1.31;67.96;96977.00;5066746;28;20458;-76
2021/04/23 02:34:32;;;;;;;13.27;4.33;;;;;;;1.23;68.49;96974.78;5078983;28;20470;-76
2021/04/23 02:36:59;;;;;;;11.23;4.37;;;;;;;1.23;68.04;96974.78;5076734;28;20509;-76
2021/04/23 02:39:26;;;;;;;10.57;4.30;;;;;;;1.32;67.70;96973.47;5068381;28;20119;-76
2021/04/23 02:41:54;;;;;;;8.70;4.13;;;;;;;1.29;68.31;96974.47;5078060;28;20473;-76
2021/04/23 02:44:21;;;;;;;9.00;3.67;;;;;;;1.29;67.57;96973.63;5076489;28;20505;-76
2021/04/23 02:46:47;;;;;;;13.77;4.30;;;;;;;1.29;67.33;96984.84;5077179;28;20515;-76
2021/04/23 02:49:13;;;;;;;11.57;4.53;;;;;;;1.20;67.64;96971.53;5065090;28;20455;-76
2021/04/23 02:51:43;;;;;;;11.03;3.87;;;;;;;1.04;67.71;96977.56;5064381;28;20447;-76
2021/04/23 02:54:10;;;;;;;11.20;4.00;;;;;;;0.96;69.09;96976.28;5050067;28;20559;-76
2021/04/23 02:56:36;;;;;;;14.83;4.43;;;;;;;1.04;68.59;96979.28;5067830;28;21000;-76
2021/04/23 02:59:05;;;;;;;10.17;4.47;;;;;;;0.74;70.19;96986.94;5064480;28;20473;-76
2021/04/23 03:01:39;;;;;;;11.27;4.50;;;;;;;0.72;70.24;96984.44;5073209;28;20445;-76
2021/04/23 03:04:05;;;;;;;11.30;4.80;;;;;;;0.76;69.67;96985.13;5066709;28;20438;-77
2021/04/23 03:06:31;;;;;;;8.47;4.00;;;;;;;0.83;69.01;96991.63;5073032;28;20457;-77
2021/04/23 03:08:57;;;;;;;9.47;4.03;;;;;;;0.86;68.67;96992.31;5078117;28;20827;-76
2021/04/23 03:11:24;;;;;;;12.33;4.20;;;;;;;0.77;69.97;96998.00;5072989;28;20032;-76
2021/04/23 03:13:57;;;;;;;12.03;4.67;;;;;;;0.81;69.60;96994.31;5054081;28;20451;-77
2021/04/23 03:16:24;;;;;;;10.70;4.17;;;;;;;0.82;69.95;96989.97;5065264;28;21077;-76
2021/04/23 03:18:51;;;;;;;11.50;4.50;;;;;;;0.88;69.25;96994.84;5071229;28;20443;-76
2021/04/23 03:21:19;;;;;;;15.03;4.40;;;;;;;0.91;69.10;96992.91;5048557;28;20463;-76
2021/04/23 03:23:45;;;;;;;12.27;4.77;;;;;;;1.00;69.03;96989.00;5051358;28;20511;-76
2021/04/23 03:26:13;;;;;;;12.20;4.43;;;;;;;0.95;69.18;96991.00;5057577;28;20471;-76
2021/04/23 03:28:41;;;;;;;12.00;4.20;;;;;;;0.85;70.02;96995.00;5060281;28;20505;-77
2021/04/23 03:31:07;;;;;;;11.37;4.43;;;;;;;0.80;70.78;96991.81;5078536;28;20481;-76
2021/04/23 03:33:33;;;;;;;10.73;3.83;;;;;;;0.84;70.74;96998.47;5078161;28;20473;-75
2021/04/23 03:36:00;;;;;;;10.90;4.50;;;;;;;0.84;70.74;96998.47;5055305;28;20536;-76
2021/04/23 03:38:30;;;;;;;9.77;4.23;;;;;;;0.79;70.89;96985.78;5074110;28;20543;-76
2021/04/23 03:40:58;;;;;;;9.60;4.57;;;;;;;0.83;70.90;96986.47;5057567;28;20832;-75
2021/04/23 03:43:24;;;;;;;11.43;4.57;;;;;;;0.84;70.50;96995.88;5065628;28;20478;-76
2021/04/23 03:45:50;;;;;;;10.50;3.57;;;;;;;0.85;70.23;96989.81;5067001;28;20482;-76
2021/04/23 03:48:16;;;;;;;14.70;5.03;;;;;;;0.80;70.49;96995.22;5054947;28;20466;-75
2021/04/23 03:50:44;;;;;;;9.13;4.10;;;;;;;0.71;70.68;96995.72;5050721;28;20466;-76
2021/04/23 03:53:13;;;;;;;15.83;5.50;;;;;;;0.60;71.23;96985.91;5072131;28;20032;-76
2021/04/23 03:55:43;;;;;;;10.30;4.17;;;;;;;0.69;70.45;96987.19;5059628;28;20461;-75
2021/04/23 03:58:10;;;;;;;13.17;4.60;;;;;;;0.77;69.75;96998.00;5066798;28;20474;-76
2021/04/23 04:00:40;;;;;;;10.87;4.00;;;;;;;0.71;69.78;97003.50;5073038;28;20458;-75
2021/04/23 04:03:06;;;;;;;13.87;4.80;;;;;;;0.53;70.70;97000.09;5078605;28;21033;-76
2021/04/23 04:05:33;;;;;;;7.07;3.80;;;;;;;0.32;72.16;97004.59;5080559;28;20449;-76
2021/04/23 04:07:59;;;;;;;8.33;3.90;;;;;;;0.36;72.45;97018.22;5076517;28;21027;-75
2021/04/23 04:10:25;;;;;;;11.23;4.67;;;;;;;0.31;72.39;97012.47;5085664;28;20478;-76
2021/04/23 04:12:51;;;;;;;11.37;4.57;;;;;;;0.13;73.56;97021.94;5078644;28;20028;-76
2021/04/23 04:15:17;;;;;;;12.23;4.50;;;;;;;0.04;73.44;97023.25;5054883;28;20460;-76
2021/04/23 04:17:43;;;;;;;11.57;5.80;;;;;;;0.11;73.52;97027.22;5053925;28;20063;-76
2021/04/23 04:20:12;;;;;;;16.93;5.40;;;;;;;-0.06;73.96;97032.38;5061972;28;20032;-76
2021/04/23 04:22:38;;;;;;;13.50;5.00;;;;;;;-0.06;74.23;97035.78;5054433;28;20458;-76
2021/04/23 04:25:06;;;;;;;11.97;4.97;;;;;;;0.04;73.96;97033.59;5063845;28;20450;-76
2021/04/23 04:27:32;;;;;;;14.90;4.60;;;;;;;0.01;74.32;97032.91;5068418;28;20844;-75
2021/04/23 04:29:58;;;;;;;15.57;7.07;;;;;;;0.00;74.39;97037.25;5093864;28;21000;-77
2021/04/23 04:32:23;;;;;;;12.30;5.87;;;;;;;0.04;74.49;97032.78;5058421;28;20033;-77
2021/04/23 04:34:49;;;;;;;13.10;5.87;;;;;;;0.22;73.53;97032.69;5088495;28;20024;-75
2021/04/23 04:37:15;;;;;;;11.03;4.70;;;;;;;0.20;73.49;97036.25;5072986;28;20433;-76
2021/04/23 04:39:40;;;;;;;11.77;4.83;;;;;;;0.34;73.01;97036.41;5076435;28;20044;-75
2021/04/23 04:42:06;;;;;;;10.93;5.13;;;;;;;0.41;72.88;97040.38;5054877;28;20028;-75
2021/04/23 04:44:34;;;;;;;14.83;6.07;;;;;;;0.17;73.47;97044.19;5081291;28;20059;-76
2021/04/23 04:47:01;;;;;;;12.27;5.47;;;;;;;0.42;73.48;97033.44;5091084;28;20044;-76
2021/04/23 04:49:26;;;;;;;13.03;5.57;;;;;;;0.78;74.29;97037.66;5052683;28;20448;-75
2021/04/23 04:51:52;;;;;;;14.07;6.23;;;;;;;0.57;72.42;97044.75;5075221;28;20525;-76
2021/04/23 04:54:18;;;;;;;11.80;5.47;;;;;;;0.67;72.52;97049.41;5067631;28;20370;-76
2021/04/23 04:56:44;;;;;;;18.50;9.30;;;;;;;0.70;72.59;97043.22;5076978;28;20436;-76
2021/04/23 04:59:09;;;;;;;12.53;6.63;;;;;;;0.59;72.61;97051.53;5069390;28;20110;-75
2021/04/23 05:01:35;;;;;;;10.37;5.90;;;;;;;0.75;72.56;97040.41;5075718;28;20028;-76
2021/04/23 05:04:01;;;;;;;10.50;6.00;;;;;;;0.84;71.67;97045.94;5087522;28;20020;-75
2021/04/23 05:06:27;;;;;;;13.67;5.73;;;;;;;0.92;71.66;97043.78;5081964;28;20624;-75
2021/04/23 05:08:52;;;;;;;11.40;5.47;;;;;;;1.13;71.01;97057.34;5063009;28;20027;-76
2021/04/23 05:11:18;;;;;;;13.40;5.87;;;;;;;1.44;70.09;97053.13;5074012;28;20043;-76
2021/04/23 05:13:44;;;;;;;16.40;6.57;;;;;;;1.84;68.28;97050.94;5043717;28;20021;-76
2021/04/23 05:16:10;;;;;;;21.67;7.73;;;;;;;1.97;67.61;97051.94;5054333;28;20081;-76
2021/04/23 05:18:36;;;;;;;19.97;7.20;;;;;;;1.92;67.70;97053.97;5087578;28;20043;-76
2021/04/23 05:21:02;;;;;;;14.00;6.27;;;;;;;1.89;68.60;97061.91;5061882;28;21738;-76
2021/04/23 05:23:27;;;;;;;15.27;6.30;;;;;;;1.70;69.68;97058.66;5067921;28;20024;-75
2021/04/23 05:25:53;;;;;;;15.33;5.63;;;;;;;1.84;69.24;97053.53;5084257;28;20032;-75
2021/04/23 05:28:19;;;;;;;14.40;6.13;;;;;;;2.39;67.21;97055.59;5056403;28;20520;-75
2021/04/23 05:30:48;;;;;;;15.70;5.80;;;;;;;2.68;65.71;97060.84;5076931;28;20033;-76
2021/04/23 05:33:13;;;;;;;11.00;5.77;;;;;;;2.99;64.94;97060.72;5066861;28;20473;-77
2021/04/23 05:35:40;;;;;;;11.97;5.33;;;;;;;3.17;64.31;97063.13;5073323;28;20557;-78
2021/04/23 05:38:06;;;;;;;13.27;5.23;;;;;;;3.23;63.69;97058.38;5080656;28;20027;-75
2021/04/23 05:40:35;;;;;;;14.77;5.43;;;;;;;3.72;62.37;97068.34;5075636;28;20830;-76
2021/04/23 05:43:02;;;;;;;15.00;5.60;;;;;;;3.38;63.30;97068.78;5067141;28;20020;-76
2021/04/23 05:45:28;;;;;;;12.10;4.97;;;;;;;3.32;64.58;97077.81;5076344;28;20438;-75
2021/04/23 05:47:55;;;;;;;11.60;5.83;;;;;;;3.69;64.46;97075.50;5054105;28;20454;-76
2021/04/23 05:50:21;;;;;;;19.47;5.80;;;;;;;3.93;62.95;97068.75;5056409;28;20455;-76
2021/04/23 05:52:47;;;;;;;18.93;5.20;;;;;;;4.24;61.37;97067.63;5072527;28;20525;-76
2021/04/23 05:55:15;;;;;;;15.30;4.87;;;;;;;4.14;61.47;97068.31;5075054;28;20570;-76
2021/04/23 05:57:41;;;;;;;12.30;5.07;;;;;;;4.34;61.71;97067.84;5065114;28;20953;-76
2021/04/23 06:00:10;;;;;;;12.33;5.57;;;;;;;4.83;61.65;97067.22;5076842;28;20447;-76
2021/04/23 06:02:40;;;;;;;11.03;5.30;;;;;;;5.21;60.01;97068.97;5072158;28;20457;-76
2021/04/23 06:05:08;;;;;;;10.67;5.30;;;;;;;5.97;57.79;97072.38;5080343;28;20458;-76
2021/04/23 06:07:33;;;;;;;16.13;6.30;;;;;;;5.66;58.50;97072.75;5077007;28;20486;-74
2021/04/23 06:09:59;;;;;;;11.07;5.30;;;;;;;5.54;59.39;97083.25;5074732;28;20467;-76
2021/04/23 06:12:25;;;;;;;9.53;4.40;;;;;;;5.98;57.98;97081.91;5072318;28;20411;-76
2021/04/23 06:14:51;;;;;;;9.90;4.70;;;;;;;6.25;57.50;97079.91;5061925;28;20056;-75
2021/04/23 06:17:17;;;;;;;14.20;4.93;;;;;;;6.89;55.14;97082.13;5089838;28;20016;-76
2021/04/23 06:19:42;;;;;;;9.67;4.57;;;;;;;6.06;57.47;97082.16;5067289;28;20056;-75
2021/04/23 06:22:08;;;;;;;11.27;4.70;;;;;;;5.87;57.16;97078.25;5086292;28;20020;-77
2021/04/23 06:24:35;;;;;;;14.87;5.50;;;;;;;6.82;55.38;97083.56;5046994;28;20587;-76
2021/04/23 06:27:01;;;;;;;11.33;4.27;;;;;;;6.98;53.17;97089.28;5051753;28;20048;-76
2021/04/23 06:29:28;;;;;;;12.77;4.40;;;;;;;7.47;52.35;97084.69;5065750;28;20101;-76
2021/04/23 06:31:55;;;;;;;9.23;4.10;;;;;;;7.60;50.92;97084.59;5080514;28;20458;-76
2021/04/23 06:34:21;;;;;;;10.27;4.47;;;;;;;7.64;48.23;97088.63;5075388;28;20476;-76
2021/04/23 06:36:46;;;;;;;12.30;4.07;;;;;;;7.63;49.77;97087.78;5066387;28;20128;-77
2021/04/23 06:39:15;;;;;;;10.90;4.10;;;;;;;7.91;50.05;97085.59;5048853;28;20094;-76
2021/04/23 06:41:42;;;;;;;12.23;4.30;;;;;;;8.42;48.60;97079.81;5062457;28;20121;-76
2021/04/23 06:44:08;;;;;;;10.33;4.40;;;;;;;8.84;47.12;97074.59;5071017;28;20432;-77
2021/04/23 06:46:34;;;;;;;10.97;3.83;;;;;;;8.56;47.47;97081.28;5046975;28;20031;-76
2021/04/23 06:49:00;;;;;;;14.70;4.37;;;;;;;8.31;48.25;97087.66;5063345;28;20029;-76
2021/04/23 06:51:27;;;;;;;11.67;3.37;;;;;;;9.52;46.62;97081.03;5073424;28;20028;-76
2021/04/23 06:53:52;;;;;;;10.97;3.93;;;;;;;9.91;45.25;97082.00;5051769;28;20513;-76
2021/04/23 06:56:18;;;;;;;10.30;4.03;;;;;;;10.20;45.66;97080.44;5059139;28;20031;-77
2021/04/23 06:58:46;;;;;;;10.57;4.20;;;;;;;10.92;43.68;97084.47;5064013;28;20024;-77
2021/04/23 07:01:16;;;;;;;14.37;4.67;;;;;;;10.22;45.34;97081.94;5058310;28;20058;-76
2021/04/23 07:03:43;;;;;;;13.37;4.57;;;;;;;11.49;42.12;97080.03;5064921;28;20049;-76
2021/04/23 07:06:09;;;;;;;12.73;4.57;;;;;;;11.86;42.06;97081.88;5074785;28;20187;-77
2021/04/23 07:08:36;;;;;;;11.90;3.80;;;;;;;11.50;42.27;97082.56;5056883;28;20028;-76
2021/04/23 07:11:02;;;;;;;9.53;3.83;;;;;;;12.77;39.48;97074.72;5061058;28;20037;-76
2021/04/23 07:13:28;;;;;;;13.57;5.07;;;;;;;11.78;42.52;97079.94;5068158;28;20024;-77
2021/04/23 07:15:54;;;;;;;12.50;4.00;;;;;;;11.69;40.98;97081.63;5060444;28;20536;-77
2021/04/23 07:18:20;;;;;;;10.67;4.53;;;;;;;12.88;40.00;97078.94;5075958;28;20082;-76
2021/04/23 07:20:46;;;;;;;9.90;4.10;;;;;;;11.92;42.55;97078.66;5065695;28;20482;-76
2021/04/23 07:23:11;;;;;;;16.43;5.30;;;;;;;12.19;41.40;97081.25;5061776;28;20090;-76
2021/04/23 07:25:38;;;;;;;10.77;4.30;;;;;;;12.26;38.74;97084.13;5067707;28;20031;-77
2021/04/23 07:28:04;;;;;;;8.90;3.60;;;;;;;13.05;39.15;97085.19;5071347;28;20036;-76
2021/04/23 07:30:32;;;;;;;10.77;3.77;;;;;;;12.66;37.97;97085.50;5050663;28;20115;-76
2021/04/23 07:32:58;;;;;;;7.27;4.10;;;;;;;13.91;35.87;97077.25;5053712;28;20090;-77
2021/04/23 07:35:25;;;;;;;11.23;3.60;;;;;;;13.25;34.63;97093.78;5082380;28;20033;-76
2021/04/23 07:37:52;;;;;;;13.13;3.73;;;;;;;14.30;32.75;97076.75;5050317;28;20661;-77
2021/04/23 07:40:20;;;;;;;10.50;3.50;;;;;;;15.09;31.66;97075.34;5080158;28;20028;-77
2021/04/23 07:42:47;;;;;;;11.83;3.93;;;;;;;15.29;31.14;97076.66;5066880;28;20030;-76
2021/04/23 07:45:13;;;;;;;12.70;4.13;;;;;;;15.71;30.77;97074.75;5082684;28;20127;-77
2021/04/23 07:47:39;;;;;;;12.03;3.93;;;;;;;14.86;31.15;97075.19;5061974;28;20118;-77
2021/04/23 07:50:07;;;;;;;10.20;4.20;;;;;;;15.08;30.75;97079.81;5065229;28;20021;-77
2021/04/23 07:52:33;;;;;;;12.80;4.40;;;;;;;15.14;32.25;97083.63;5070387;28;20111;-77
2021/04/23 07:55:01;;;;;;;8.60;4.10;;;;;;;16.09;30.70;97075.75;5080472;28;20539;-77
2021/04/23 07:57:27;;;;;;;10.27;4.60;;;;;;;16.22;29.50;97070.72;5068594;28;20099;-77
2021/04/23 07:59:54;;;;;;;14.33;3.97;;;;;;;16.09;29.17;97070.44;5074124;28;20482;-77
2021/04/23 08:02:20;;;;;;;9.53;4.10;;;;;;;16.04;28.67;97070.16;5075012;28;20035;-78
2021/04/23 08:04:45;;;;;;;11.50;4.23;;;;;;;15.67;30.25;97082.22;5076088;28;20016;-77
2021/04/23 08:07:12;;;;;;;11.83;4.33;;;;;;;16.54;28.55;97068.88;5073551;28;20093;-78
2021/04/23 08:09:39;;;;;;;10.63;3.63;;;;;;;16.07;28.91;97077.78;5063910;28;20077;-77
2021/04/23 08:12:06;;;;;;;11.43;3.67;;;;;;;15.79;29.62;97074.72;5062615;28;20042;-77
2021/04/23 08:14:32;;;;;;;13.37;3.90;;;;;;;16.85;28.58;97070.69;5065766;28;21578;-77
2021/04/23 08:16:58;;;;;;;10.63;3.87;;;;;;;16.38;29.21;97082.25;5044699;28;20024;-77
2021/04/23 08:19:24;;;;;;;10.37;3.90;;;;;;;15.85;29.44;97079.34;5086506;28;20066;-77
2021/04/23 08:21:50;;;;;;;11.70;4.23;;;;;;;16.26;28.21;97072.03;5051003;28;20060;-76
2021/04/23 08:24:16;;;;;;;13.70;4.23;;;;;;;15.45;28.95;97072.31;5038701;28;20138;-78
2021/04/23 08:26:43;;;;;;;12.80;5.00;;;;;;;13.49;32.63;97080.72;5053526;28;20028;-76
2021/04/23 08:29:12;;;;;;;12.27;4.10;;;;;;;15.39;30.55;97073.81;5061344;28;20035;-77
2021/04/23 08:31:42;;;;;;;12.67;4.47;;;;;;;15.86;30.06;97077.50;5055474;28;20401;-77
2021/04/23 08:34:09;;;;;;;11.53;5.07;;;;;;;16.22;30.03;97076.03;5062719;28;20063;-77
2021/04/23 08:36:35;;;;;;;9.80;4.80;;;;;;;16.96;28.52;97075.56;5082665;28;20100;-77
2021/04/23 08:39:06;;;;;;;10.87;4.60;;;;;;;17.47;27.46;97065.16;5072767;28;20032;-78
2021/04/23 08:41:33;;;;;;;11.70;5.07;;;;;;;17.48;27.85;97074.75;5084894;28;20032;-78
2021/04/23 08:43:58;;;;;;;11.37;4.70;;;;;;;18.18;26.55;97070.81;5073597;28;20024;-78
2021/04/23 08:46:25;;;;;;;10.85;3.90;;;;;;;17.75;27.36;97078.63;5061524;28;20035;-77
2021/04/23 08:48:53;;;;;;;9.55;4.32;;;;;;;17.49;27.83;97076.41;5083670;28;20517;-78
2021/04/23 08:51:21;;;;;;;9.95;4.18;;;;;;;17.55;28.13;97075.69;5066732;28;20493;-78
2021/04/23 08:53:49;;;;;;;12.75;4.50;;;;;;;18.70;26.29;97069.75;5084293;28;20058;-76
2021/04/23 08:56:15;;;;;;;11.60;4.32;;;;;;;18.45;26.20;97074.63;5072197;28;20054;-78
2021/04/23 08:58:40;;;;;;;15.05;8.95;;;;;;;17.00;27.30;97082.19;5066412;28;20510;-78
2021/04/23 09:01:06;;;;;;;8.20;3.97;;;;;;;18.10;26.71;97076.25;5051795;28;20501;-78
2021/04/23 09:03:32;;;;;;;13.05;4.65;;;;;;;16.61;28.29;97079.63;5062380;28;20082;-78
2021/04/23 09:06:07;;;;;;;11.25;4.90;;;;;;;18.25;26.88;97076.22;5063345;28;20413;-78
2021/04/23 09:08:35;;;;;;;14.52;5.30;;;;;;;18.72;26.25;97074.94;5079887;28;20572;-78
2021/04/23 09:11:16;;;;;;;14.38;5.05;;;;;;;18.60;26.25;97069.22;5065236;28;20521;-78
2021/04/23 09:14:13;;;;;;;12.77;4.90;;;;;;;17.86;27.04;97077.38;5069352;28;20036;-77
2021/04/23 09:16:44;;;;;;;11.65;4.65;;;;;;;18.37;27.65;97070.22;5067230;28;20125;-77
2021/04/23 09:19:25;;;;;;;12.02;4.60;;;;;;;17.95;26.14;97078.94;5061282;28;20051;-79
2021/04/23 09:21:55;;;;;;;9.20;3.75;;;;;;;18.72;26.53;97064.28;5073229;28;20025;-79
2021/04/23 09:24:28;;;;;;;13.93;4.72;;;;;;;19.25;26.19;97070.91;5065704;28;20040;-79
2021/04/23 09:26:55;;;;;;;;;;;;;;;19.61;24.05;97074.41;5070176;28;20100;-79
2021/04/23 09:29:32;;;;;;;10.55;4.15;;;;;;;18.41;25.78;97068.03;5075423;28;19912;-80
2021/04/23 09:32:16;;;;;;;9.77;4.70;;;;;;;19.98;24.84;97060.69;5065563;28;20536;-79
2021/04/23 09:34:53;;;;;;;10.90;4.43;;;;;;;19.91;24.65;97075.03;5074574;28;20111;-79
2021/04/23 09:37:21;;;;;;;8.32;3.70;;;;;;;19.23;24.70;97078.25;5082356;28;20498;-79
2021/04/23 09:39:50;;;;;;;11.65;4.40;;;;;;;19.17;25.05;97084.34;5076968;28;20032;-79
2021/04/23 09:42:15;;;;;;;9.45;3.50;;;;;;;19.24;24.11;97079.88;5045992;28;20115;-80
2021/04/23 09:44:43;;;;;;;11.80;4.40;;;;;;;17.91;25.46;97072.34;5062391;28;20036;-79
2021/04/23 09:47:18;;;;;;;17.15;4.53;;;;;;;20.20;22.53;97063.25;5056739;28;20040;-80
2021/04/23 09:49:55;;;;;;;8.75;4.40;;;;;;;18.26;24.98;97075.22;5068080;28;20050;-79
2021/04/23 09:52:24;;;;;;;9.10;4.07;;;;;;;18.54;24.38;97073.50;5070166;28;20040;-79
2021/04/23 09:54:52;;;;;;;13.68;5.18;;;;;;;19.30;24.18;97073.78;5058408;28;20037;-81
2021/04/23 09:57:33;;;;;;;13.32;5.05;;;;;;;19.01;24.55;97079.28;5064913;28;20823;-81
2021/04/23 10:00:00;;;;;;;10.25;4.72;;;;;;;19.29;23.51;97072.16;5062258;28;20036;-80
2021/04/23 10:02:28;;;;;;;12.65;4.15;;;;;;;18.40;24.63;97073.53;5085982;28;20035;-81
2021/04/23 10:04:55;;;;;;;9.75;4.43;;;;;;;18.53;24.97;97076.34;5082843;28;20029;-80
2021/04/23 10:07:28;;;;;;;10.75;4.43;;;;;;;17.22;25.98;97080.50;5076912;28;20021;-80
2021/04/23 10:10:03;;;;;;;;;;;;;;;20.22;22.65;97070.06;5066767;28;20379;-81
2021/04/23 10:12:33;;;;;;;9.63;4.40;;;;;;;20.62;22.67;97067.53;5070463;28;19954;-81
2021/04/23 10:15:17;;;;;;;12.80;5.13;;;;;;;21.46;22.26;97065.31;5058274;28;20028;-81
2021/04/23 10:17:51;;;;;;;8.77;4.13;;;;;;;21.59;21.27;97058.09;5073285;28;20027;-81
2021/04/23 10:20:22;;;;;;;13.75;4.90;;;;;;;19.71;23.94;97074.91;5049632;28;20020;-80
2021/04/23 10:22:58;;;;;;;8.65;3.85;;;;;;;20.09;23.59;97063.84;5086220;28;20024;-81
2021/04/23 10:25:25;;;;;;;14.43;6.97;;;;;;;20.42;23.08;97067.44;5065226;28;20088;-80
2021/04/23 10:27:53;;;;;;;10.07;4.85;;;;;;;20.82;22.60;97056.84;5076483;28;20032;-81
2021/04/23 10:30:22;;;;;;;12.98;5.15;;;;;;;18.81;25.07;97071.09;5065550;28;20029;-80
2021/04/23 10:32:55;;;;;;;9.57;4.60;;;;;;;18.82;24.58;97068.25;5046802;28;20620;-80
2021/04/23 10:35:23;;;;;;;8.70;3.97;;;;;;;19.19;23.91;97071.66;5069806;28;20047;-81
2021/04/23 10:37:49;;;;;;;9.88;4.80;;;;;;;19.39;23.25;97071.81;5059088;28;20036;-81
2021/04/23 10:40:17;;;;;;;10.57;4.50;;;;;;;19.94;22.69;97069.28;5067609;28;20384;-81
2021/04/23 10:42:58;;;;;;;10.10;4.20;;;;;;;20.04;22.94;97066.25;5066357;28;20029;-81
2021/04/23 10:45:34;;;;;;;9.02;4.03;;;;;;;20.47;21.46;97064.97;5068273;28;20057;-81
2021/04/23 10:48:21;;;;;;;8.68;4.13;;;;;;;20.61;22.30;97060.53;5082513;28;20062;-81
2021/04/23 10:50:55;;;;;;;10.52;4.82;;;;;;;20.60;22.14;97053.53;5076749;28;20039;-80
2021/04/23 10:53:27;;;;;;;10.85;4.32;;;;;;;19.21;23.46;97066.13;5067590;28;20024;-79
2021/04/23 10:56:00;;;;;;;12.27;4.75;;;;;;;18.27;24.45;97066.19;5064028;28;20063;-80
2021/04/23 10:58:26;;;;;;;10.55;5.05;;;;;;;17.57;25.94;97055.06;5084016;28;20056;-79
2021/04/23 11:00:55;;;;;;;9.80;4.50;;;;;;;18.22;23.88;97061.44;5069445;28;20024;-80
2021/04/23 11:03:23;;;;;;;12.25;4.53;;;;;;;19.43;22.84;97057.06;5083209;28;20124;-79
2021/04/23 11:06:02;;;;;;;10.02;4.28;;;;;;;20.08;22.10;97046.16;5064177;28;20114;-80
2021/04/23 11:08:31;;;;;;;13.43;6.68;;;;;;;19.54;23.25;97051.16;5061883;28;20051;-80
2021/04/23 11:11:05;;;;;;;7.50;4.53;;;;;;;18.26;22.69;97061.91;5045673;28;20016;-80
2021/04/23 11:13:35;;;;;;;8.93;3.63;;;;;;;18.93;21.97;97056.25;5079309;28;20377;-80
2021/04/23 11:16:20;;;;;;;6.55;3.20;;;;;;;18.96;21.91;97055.06;5055604;28;20032;-80
2021/04/23 11:18:47;;;;;;;7.47;4.10;;;;;;;18.89;22.29;97049.66;5049011;28;20083;-80
2021/04/23 11:21:33;;;;;;;8.55;4.30;;;;;;;18.88;23.90;97048.03;5057206;28;20418;-80
2021/04/23 11:24:16;;;;;;;11.35;4.80;;;;;;;18.76;24.35;97044.22;5073871;28;20041;-83
2021/04/23 11:29:20;;;;;;;9.25;4.45;;;;;;;19.26;23.30;97045.03;5070832;28;20029;-82
2021/04/23 11:32:19;;;;;;;11.35;4.13;;;;;;;19.89;23.22;97040.53;5056409;28;20026;-82
2021/04/23 11:34:51;;;;;;;12.38;4.57;;;;;;;20.45;23.01;97031.47;5067250;28;20032;-82
2021/04/23 11:37:23;;;;;;;10.65;4.93;;;;;;;20.47;21.92;97024.91;5079600;28;20110;-82
2021/04/23 11:39:51;;;;;;;10.23;4.95;;;;;;;18.45;23.78;97029.34;5060678;28;20168;-81